sensor_id;sensor_type;location;lat;lon;timestamp;pressure;altitude;pressure_sealevel;temperature;humidity
20612;BME280;10465;42.686;23.364;2023-04-27T00:01:17;94679.91;;;10.75;48.24
20612;BME280;10465;42.686;23.364;2023-04-27T00:03:42;94673.53;;;10.68;48.12
20612;BME280;10465;42.686;23.364;2023-04-27T00:06:10;94667.59;;;10.62;48.43
20612;BME280;10465;42.686;23.364;2023-04-27T00:08:36;94667.72;;;10.57;48.26
20612;BME280;10465;42.686;23.364;2023-04-27T00:11:01;94671.19;;;10.57;48.29
20612;BME280;10465;42.686;23.364;2023-04-27T00:13:27;94674.72;;;10.44;48.44
20612;BME280;10465;42.686;23.364;2023-04-27T00:15:52;94695.31;;;10.56;48.47
20612;BME280;10465;42.686;23.364;2023-04-27T00:18:18;94694.97;;;10.49;48.27
20612;BME280;10465;42.686;23.364;2023-04-27T00:20:43;94690.59;;;10.44;48.60
20612;BME280;10465;42.686;23.364;2023-04-27T00:23:09;94694.00;;;10.45;48.39
20612;BME280;10465;42.686;23.364;2023-04-27T00:25:35;94701.06;;;10.49;48.74
20612;BME280;10465;42.686;23.364;2023-04-27T00:28:00;94692.09;;;10.28;48.59
20612;BME280;10465;42.686;23.364;2023-04-27T00:30:26;94702.41;;;10.38;48.67
20612;BME280;10465;42.686;23.364;2023-04-27T00:32:51;94678.88;;;10.28;48.77
20612;BME280;10465;42.686;23.364;2023-04-27T00:35:17;94696.47;;;10.32;48.63
20612;BME280;10465;42.686;23.364;2023-04-27T00:37:42;94674.47;;;10.14;48.95
20612;BME280;10465;42.686;23.364;2023-04-27T00:40:08;94665.56;;;10.10;49.17
20612;BME280;10465;42.686;23.364;2023-04-27T00:42:34;94702.41;;;10.29;48.94
20612;BME280;10465;42.686;23.364;2023-04-27T00:45:00;94708.28;;;10.26;48.84
20612;BME280;10465;42.686;23.364;2023-04-27T00:47:26;94706.88;;;10.29;49.09
20612;BME280;10465;42.686;23.364;2023-04-27T00:49:52;94692.81;;;10.20;48.66
20612;BME280;10465;42.686;23.364;2023-04-27T00:52:17;94706.59;;;10.30;48.82
20612;BME280;10465;42.686;23.364;2023-04-27T00:54:43;94703.47;;;10.28;48.94
20612;BME280;10465;42.686;23.364;2023-04-27T00:57:10;94694.53;;;10.15;48.95
20612;BME280;10465;42.686;23.364;2023-04-27T00:59:36;94706.06;;;10.20;49.18
20612;BME280;10465;42.686;23.364;2023-04-27T01:02:01;94703.28;;;10.25;48.88
20612;BME280;10465;42.686;23.364;2023-04-27T01:04:27;94712.81;;;10.26;49.26
20612;BME280;10465;42.686;23.364;2023-04-27T01:06:54;94705.81;;;9.99;48.99
20612;BME280;10465;42.686;23.364;2023-04-27T01:09:19;94710.19;;;10.03;49.09
20612;BME280;10465;42.686;23.364;2023-04-27T01:11:48;94718.91;;;10.04;49.04
20612;BME280;10465;42.686;23.364;2023-04-27T01:14:13;94715.19;;;10.05;49.62
20612;BME280;10465;42.686;23.364;2023-04-27T01:16:39;94715.34;;;10.08;49.39
20612;BME280;10465;42.686;23.364;2023-04-27T01:19:06;94705.78;;;9.90;49.45
20612;BME280;10465;42.686;23.364;2023-04-27T01:21:32;94717.34;;;10.03;49.43
20612;BME280;10465;42.686;23.364;2023-04-27T01:23:57;94720.31;;;10.01;49.73
20612;BME280;10465;42.686;23.364;2023-04-27T01:26:22;94704.03;;;9.85;49.83
20612;BME280;10465;42.686;23.364;2023-04-27T01:28:48;94720.31;;;10.01;49.32
20612;BME280;10465;42.686;23.364;2023-04-27T01:31:14;94720.75;;;10.03;50.04
20612;BME280;10465;42.686;23.364;2023-04-27T01:33:40;94721.50;;;9.95;50.01
20612;BME280;10465;42.686;23.364;2023-04-27T01:36:06;94736.63;;;10.03;49.84
20612;BME280;10465;42.686;23.364;2023-04-27T01:38:32;94714.81;;;9.89;49.65
20612;BME280;10465;42.686;23.364;2023-04-27T01:40:58;94724.47;;;9.94;49.38
20612;BME280;10465;42.686;23.364;2023-04-27T01:43:26;94742.06;;;9.98;50.00
20612;BME280;10465;42.686;23.364;2023-04-27T01:45:52;94685.56;;;9.63;49.31
20612;BME280;10465;42.686;23.364;2023-04-27T01:48:18;94735.16;;;9.88;50.17
20612;BME280;10465;42.686;23.364;2023-04-27T01:50:43;94711.94;;;9.77;49.77
20612;BME280;10465;42.686;23.364;2023-04-27T01:53:08;94731.44;;;9.89;50.08
20612;BME280;10465;42.686;23.364;2023-04-27T01:55:34;94730.94;;;9.87;49.83
20612;BME280;10465;42.686;23.364;2023-04-27T01:58:00;94716.56;;;9.71;50.00
20612;BME280;10465;42.686;23.364;2023-04-27T02:00:25;94744.78;;;9.84;49.80
20612;BME280;10465;42.686;23.364;2023-04-27T02:02:50;94739.78;;;9.83;50.03
20612;BME280;10465;42.686;23.364;2023-04-27T02:05:18;94735.91;;;9.80;49.70
20612;BME280;10465;42.686;23.364;2023-04-27T02:07:43;94710.25;;;9.58;49.94
20612;BME280;10465;42.686;23.364;2023-04-27T02:10:09;94737.41;;;9.73;49.54
20612;BME280;10465;42.686;23.364;2023-04-27T02:12:35;94714.00;;;9.57;49.85
20612;BME280;10465;42.686;23.364;2023-04-27T02:15:00;94736.28;;;9.65;49.99
20612;BME280;10465;42.686;23.364;2023-04-27T02:17:27;94731.28;;;9.63;50.13
20612;BME280;10465;42.686;23.364;2023-04-27T02:19:53;94737.50;;;9.68;49.93
20612;BME280;10465;42.686;23.364;2023-04-27T02:22:19;94720.28;;;9.48;50.10
20612;BME280;10465;42.686;23.364;2023-04-27T02:24:45;94722.16;;;9.47;50.10
20612;BME280;10465;42.686;23.364;2023-04-27T02:27:10;94729.97;;;9.52;50.56
20612;BME280;10465;42.686;23.364;2023-04-27T02:29:36;94715.63;;;9.45;50.50
20612;BME280;10465;42.686;23.364;2023-04-27T02:32:04;94737.97;;;9.61;50.48
20612;BME280;10465;42.686;23.364;2023-04-27T02:34:30;94667.34;;;9.08;50.31
20612;BME280;10465;42.686;23.364;2023-04-27T02:36:56;94745.56;;;9.62;50.37
20612;BME280;10465;42.686;23.364;2023-04-27T02:39:21;94741.78;;;9.55;50.19
20612;BME280;10465;42.686;23.364;2023-04-27T02:41:46;94737.09;;;9.52;50.42
20612;BME280;10465;42.686;23.364;2023-04-27T02:44:12;94734.63;;;9.55;50.06
20612;BME280;10465;42.686;23.364;2023-04-27T02:46:37;94751.41;;;9.51;49.86
20612;BME280;10465;42.686;23.364;2023-04-27T02:49:03;94747.00;;;9.46;49.58
20612;BME280;10465;42.686;23.364;2023-04-27T02:51:28;94751.16;;;9.38;49.52
20612;BME280;10465;42.686;23.364;2023-04-27T02:53:54;94748.03;;;9.36;50.33
20612;BME280;10465;42.686;23.364;2023-04-27T02:56:19;94750.97;;;9.35;49.81
20612;BME280;10465;42.686;23.364;2023-04-27T02:58:45;94752.53;;;9.36;49.49
20612;BME280;10465;42.686;23.364;2023-04-27T03:01:13;94734.34;;;9.34;49.34
20612;BME280;10465;42.686;23.364;2023-04-27T03:03:38;94756.94;;;9.40;49.70
20612;BME280;10465;42.686;23.364;2023-04-27T03:06:04;94740.84;;;9.28;49.59
20612;BME280;10465;42.686;23.364;2023-04-27T03:08:30;94740.06;;;9.28;49.31
20612;BME280;10465;42.686;23.364;2023-04-27T03:10:56;94746.50;;;9.22;49.78
20612;BME280;10465;42.686;23.364;2023-04-27T03:13:21;94758.53;;;9.28;49.64
20612;BME280;10465;42.686;23.364;2023-04-27T03:15:47;94764.16;;;9.35;49.57
20612;BME280;10465;42.686;23.364;2023-04-27T03:18:14;94766.63;;;9.31;49.58
20612;BME280;10465;42.686;23.364;2023-04-27T03:20:39;94768.56;;;9.39;49.72
20612;BME280;10465;42.686;23.364;2023-04-27T03:23:05;94747.88;;;9.19;49.82
20612;BME280;10465;42.686;23.364;2023-04-27T03:25:31;94758.16;;;9.21;49.48
20612;BME280;10465;42.686;23.364;2023-04-27T03:27:56;94764.03;;;9.18;49.82
20612;BME280;10465;42.686;23.364;2023-04-27T03:30:22;94764.66;;;9.01;49.91
20612;BME280;10465;42.686;23.364;2023-04-27T03:32:47;94776.47;;;9.17;50.19
20612;BME280;10465;42.686;23.364;2023-04-27T03:35:12;94770.69;;;9.15;50.97
20612;BME280;10465;42.686;23.364;2023-04-27T03:37:38;94777.34;;;9.12;50.93
20612;BME280;10465;42.686;23.364;2023-04-27T03:40:04;94784.19;;;9.13;50.49
20612;BME280;10465;42.686;23.364;2023-04-27T03:42:32;94790.84;;;9.11;50.36
20612;BME280;10465;42.686;23.364;2023-04-27T03:44:58;94774.22;;;9.10;50.07
20612;BME280;10465;42.686;23.364;2023-04-27T03:47:23;94790.25;;;9.14;49.94
20612;BME280;10465;42.686;23.364;2023-04-27T03:49:48;94771.38;;;9.07;50.30
20612;BME280;10465;42.686;23.364;2023-04-27T03:52:14;94785.47;;;9.16;50.51
20612;BME280;10465;42.686;23.364;2023-04-27T03:54:39;94787.50;;;9.19;50.92
20612;BME280;10465;42.686;23.364;2023-04-27T03:57:05;94790.06;;;9.10;50.81
20612;BME280;10465;42.686;23.364;2023-04-27T03:59:30;94796.56;;;9.27;50.71
20612;BME280;10465;42.686;23.364;2023-04-27T04:01:56;94796.09;;;9.25;50.43
20612;BME280;10465;42.686;23.364;2023-04-27T04:04:22;94812.25;;;9.23;50.92
20612;BME280;10465;42.686;23.364;2023-04-27T04:06:47;94808.34;;;9.07;50.39
20612;BME280;10465;42.686;23.364;2023-04-27T04:09:13;94804.66;;;9.08;49.99
20612;BME280;10465;42.686;23.364;2023-04-27T04:11:39;94812.28;;;9.09;50.43
20612;BME280;10465;42.686;23.364;2023-04-27T04:14:04;94824.50;;;9.05;50.34
20612;BME280;10465;42.686;23.364;2023-04-27T04:16:32;94815.91;;;9.00;50.44
20612;BME280;10465;42.686;23.364;2023-04-27T04:18:57;94815.50;;;9.06;50.23
20612;BME280;10465;42.686;23.364;2023-04-27T04:21:23;94830.75;;;9.09;50.50
20612;BME280;10465;42.686;23.364;2023-04-27T04:23:48;94817.16;;;9.02;50.23
20612;BME280;10465;42.686;23.364;2023-04-27T04:26:14;94833.28;;;9.14;50.13
20612;BME280;10465;42.686;23.364;2023-04-27T04:28:39;94832.03;;;9.12;49.90
20612;BME280;10465;42.686;23.364;2023-04-27T04:31:05;94844.81;;;9.19;49.66
20612;BME280;10465;42.686;23.364;2023-04-27T04:33:33;94853.72;;;9.23;49.82
20612;BME280;10465;42.686;23.364;2023-04-27T04:36:02;94847.19;;;9.20;49.94
20612;BME280;10465;42.686;23.364;2023-04-27T04:38:28;94846.75;;;9.27;49.93
20612;BME280;10465;42.686;23.364;2023-04-27T04:40:53;94846.50;;;9.28;49.69
20612;BME280;10465;42.686;23.364;2023-04-27T04:43:19;94827.22;;;9.14;50.01
20612;BME280;10465;42.686;23.364;2023-04-27T04:45:45;94837.28;;;9.26;49.70
20612;BME280;10465;42.686;23.364;2023-04-27T04:48:13;94841.41;;;9.32;49.34
20612;BME280;10465;42.686;23.364;2023-04-27T04:50:39;94858.88;;;9.41;48.80
20612;BME280;10465;42.686;23.364;2023-04-27T04:53:06;94862.22;;;9.33;48.56
20612;BME280;10465;42.686;23.364;2023-04-27T04:55:31;94869.63;;;9.45;49.05
20612;BME280;10465;42.686;23.364;2023-04-27T04:57:57;94861.91;;;9.49;48.66
20612;BME280;10465;42.686;23.364;2023-04-27T05:00:25;94847.94;;;9.34;48.90
20612;BME280;10465;42.686;23.364;2023-04-27T05:02:50;94842.69;;;9.21;48.68
20612;BME280;10465;42.686;23.364;2023-04-27T05:05:16;94881.56;;;9.56;48.27
20612;BME280;10465;42.686;23.364;2023-04-27T05:07:42;94893.88;;;9.61;48.36
20612;BME280;10465;42.686;23.364;2023-04-27T05:10:07;94892.69;;;9.67;48.93
20612;BME280;10465;42.686;23.364;2023-04-27T05:12:33;94889.03;;;9.77;48.07
20612;BME280;10465;42.686;23.364;2023-04-27T05:14:58;94889.56;;;9.87;48.02
20612;BME280;10465;42.686;23.364;2023-04-27T05:17:25;94862.31;;;9.78;47.52
20612;BME280;10465;42.686;23.364;2023-04-27T05:19:50;94887.56;;;10.07;47.75
20612;BME280;10465;42.686;23.364;2023-04-27T05:22:16;94895.53;;;10.15;47.69
20612;BME280;10465;42.686;23.364;2023-04-27T05:24:42;94881.34;;;10.11;47.44
20612;BME280;10465;42.686;23.364;2023-04-27T05:27:07;94897.09;;;10.16;47.27
20612;BME280;10465;42.686;23.364;2023-04-27T05:29:32;94887.19;;;10.00;46.99
20612;BME280;10465;42.686;23.364;2023-04-27T05:31:58;94897.34;;;10.06;47.13
20612;BME280;10465;42.686;23.364;2023-04-27T05:34:23;94892.84;;;10.07;48.31
20612;BME280;10465;42.686;23.364;2023-04-27T05:36:49;94898.25;;;10.02;48.15
20612;BME280;10465;42.686;23.364;2023-04-27T05:39:14;94902.25;;;10.13;47.98
20612;BME280;10465;42.686;23.364;2023-04-27T05:41:40;94905.16;;;10.11;47.71
20612;BME280;10465;42.686;23.364;2023-04-27T05:44:05;94864.72;;;9.88;47.44
20612;BME280;10465;42.686;23.364;2023-04-27T05:46:31;94876.34;;;9.87;47.88
20612;BME280;10465;42.686;23.364;2023-04-27T05:48:57;94860.94;;;9.81;47.69
20612;BME280;10465;42.686;23.364;2023-04-27T05:51:22;94866.41;;;9.84;47.61
20612;BME280;10465;42.686;23.364;2023-04-27T05:53:48;94913.16;;;9.98;47.77
20612;BME280;10465;42.686;23.364;2023-04-27T05:56:13;94887.13;;;9.91;47.79
20612;BME280;10465;42.686;23.364;2023-04-27T05:58:39;94887.00;;;9.96;48.07
20612;BME280;10465;42.686;23.364;2023-04-27T06:01:05;94902.66;;;10.06;48.20
20612;BME280;10465;42.686;23.364;2023-04-27T06:03:30;94893.03;;;10.10;48.16
20612;BME280;10465;42.686;23.364;2023-04-27T06:05:58;94902.50;;;10.25;47.91
20612;BME280;10465;42.686;23.364;2023-04-27T06:08:24;94908.63;;;10.34;47.48
20612;BME280;10465;42.686;23.364;2023-04-27T06:10:49;94899.28;;;10.37;47.38
20612;BME280;10465;42.686;23.364;2023-04-27T06:13:16;94918.66;;;10.46;47.08
20612;BME280;10465;42.686;23.364;2023-04-27T06:15:41;94909.41;;;10.57;47.13
20612;BME280;10465;42.686;23.364;2023-04-27T06:18:07;94909.22;;;10.54;46.74
20612;BME280;10465;42.686;23.364;2023-04-27T06:20:33;94912.03;;;10.57;46.76
20612;BME280;10465;42.686;23.364;2023-04-27T06:22:59;94901.59;;;10.61;46.00
20612;BME280;10465;42.686;23.364;2023-04-27T06:25:25;94883.81;;;10.53;46.58
20612;BME280;10465;42.686;23.364;2023-04-27T06:27:53;94909.16;;;10.76;46.75
20612;BME280;10465;42.686;23.364;2023-04-27T06:30:18;94901.56;;;10.83;46.72
20612;BME280;10465;42.686;23.364;2023-04-27T06:32:44;94904.69;;;10.85;45.55
20612;BME280;10465;42.686;23.364;2023-04-27T06:35:10;94900.06;;;10.91;45.97
20612;BME280;10465;42.686;23.364;2023-04-27T06:37:35;94903.94;;;10.94;46.01
20612;BME280;10465;42.686;23.364;2023-04-27T06:40:01;94878.53;;;10.84;45.72
20612;BME280;10465;42.686;23.364;2023-04-27T06:42:27;94884.19;;;11.00;45.47
20612;BME280;10465;42.686;23.364;2023-04-27T06:44:53;94890.03;;;11.19;45.45
20612;BME280;10465;42.686;23.364;2023-04-27T06:47:20;94860.28;;;11.22;45.19
20612;BME280;10465;42.686;23.364;2023-04-27T06:49:45;94893.53;;;11.54;44.38
20612;BME280;10465;42.686;23.364;2023-04-27T06:52:11;94898.69;;;11.68;44.41
20612;BME280;10465;42.686;23.364;2023-04-27T06:54:36;94885.44;;;11.77;44.18
20612;BME280;10465;42.686;23.364;2023-04-27T06:57:01;94876.38;;;11.52;43.43
20612;BME280;10465;42.686;23.364;2023-04-27T06:59:27;94882.47;;;11.52;43.27
20612;BME280;10465;42.686;23.364;2023-04-27T07:01:53;94887.94;;;11.64;43.99
20612;BME280;10465;42.686;23.364;2023-04-27T07:04:18;94855.50;;;11.59;43.74
20612;BME280;10465;42.686;23.364;2023-04-27T07:06:44;94871.72;;;11.75;42.97
20612;BME280;10465;42.686;23.364;2023-04-27T07:09:09;94875.31;;;11.79;42.45
20612;BME280;10465;42.686;23.364;2023-04-27T07:11:35;94888.28;;;11.98;42.37
20612;BME280;10465;42.686;23.364;2023-04-27T07:14:00;94870.47;;;12.07;42.34
20612;BME280;10465;42.686;23.364;2023-04-27T07:16:26;94880.00;;;12.17;42.10
20612;BME280;10465;42.686;23.364;2023-04-27T07:18:51;94870.63;;;12.19;41.81
20612;BME280;10465;42.686;23.364;2023-04-27T07:21:17;94889.06;;;12.24;41.25
20612;BME280;10465;42.686;23.364;2023-04-27T07:23:42;94838.66;;;12.16;41.40
20612;BME280;10465;42.686;23.364;2023-04-27T07:26:08;94887.78;;;12.48;41.00
20612;BME280;10465;42.686;23.364;2023-04-27T07:28:34;94879.47;;;12.58;41.19
20612;BME280;10465;42.686;23.364;2023-04-27T07:31:00;94887.25;;;12.63;40.92
20612;BME280;10465;42.686;23.364;2023-04-27T07:33:26;94871.63;;;12.70;40.46
20612;BME280;10465;42.686;23.364;2023-04-27T07:35:54;94867.91;;;12.62;40.30
20612;BME280;10465;42.686;23.364;2023-04-27T07:38:20;94862.72;;;12.66;40.33
20612;BME280;10465;42.686;23.364;2023-04-27T07:40:46;94865.97;;;12.72;40.11
20612;BME280;10465;42.686;23.364;2023-04-27T07:43:12;94858.59;;;12.48;40.40
20612;BME280;10465;42.686;23.364;2023-04-27T07:45:39;94881.19;;;12.62;40.41
20612;BME280;10465;42.686;23.364;2023-04-27T07:48:05;94868.69;;;12.54;40.04
20612;BME280;10465;42.686;23.364;2023-04-27T07:50:31;94868.13;;;12.40;40.15
20612;BME280;10465;42.686;23.364;2023-04-27T07:52:57;94878.91;;;12.26;40.69
20612;BME280;10465;42.686;23.364;2023-04-27T07:55:28;94877.63;;;12.41;40.99
20612;BME280;10465;42.686;23.364;2023-04-27T07:57:55;94841.91;;;12.30;40.32
20612;BME280;10465;42.686;23.364;2023-04-27T08:00:21;94872.09;;;12.72;39.62
20612;BME280;10465;42.686;23.364;2023-04-27T08:02:48;94844.91;;;12.67;39.61
20612;BME280;10465;42.686;23.364;2023-04-27T08:05:13;94869.16;;;13.03;39.16
20612;BME280;10465;42.686;23.364;2023-04-27T08:07:39;94855.03;;;13.11;38.75
20612;BME280;10465;42.686;23.364;2023-04-27T08:10:07;94880.56;;;13.42;38.63
20612;BME280;10465;42.686;23.364;2023-04-27T08:12:33;94833.72;;;13.20;37.92
20612;BME280;10465;42.686;23.364;2023-04-27T08:14:58;94874.41;;;13.50;37.80
20612;BME280;10465;42.686;23.364;2023-04-27T08:17:24;94876.03;;;13.64;37.55
20612;BME280;10465;42.686;23.364;2023-04-27T08:19:49;94886.56;;;13.81;37.59
20612;BME280;10465;42.686;23.364;2023-04-27T08:22:15;94885.13;;;14.04;36.80
20612;BME280;10465;42.686;23.364;2023-04-27T08:24:41;94866.13;;;14.15;36.33
20612;BME280;10465;42.686;23.364;2023-04-27T08:27:06;94866.59;;;14.29;35.85
20612;BME280;10465;42.686;23.364;2023-04-27T08:29:32;94851.03;;;14.19;36.61
20612;BME280;10465;42.686;23.364;2023-04-27T08:32:00;94874.50;;;14.38;36.49
20612;BME280;10465;42.686;23.364;2023-04-27T08:34:26;94858.84;;;14.36;35.79
20612;BME280;10465;42.686;23.364;2023-04-27T08:36:52;94855.38;;;14.56;36.21
20612;BME280;10465;42.686;23.364;2023-04-27T08:39:22;94843.63;;;14.70;36.25
20612;BME280;10465;42.686;23.364;2023-04-27T08:41:47;94863.22;;;14.98;35.43
20612;BME280;10465;42.686;23.364;2023-04-27T08:44:16;94854.91;;;15.12;34.99
20612;BME280;10465;42.686;23.364;2023-04-27T08:46:42;94876.00;;;15.42;35.38
20612;BME280;10465;42.686;23.364;2023-04-27T08:49:07;94857.56;;;15.37;34.78
20612;BME280;10465;42.686;23.364;2023-04-27T08:51:34;94883.88;;;15.38;34.89
20612;BME280;10465;42.686;23.364;2023-04-27T08:53:59;94873.66;;;14.79;35.74
20612;BME280;10465;42.686;23.364;2023-04-27T08:56:26;94867.63;;;14.70;35.62
20612;BME280;10465;42.686;23.364;2023-04-27T08:58:53;94883.59;;;14.70;35.35
20612;BME280;10465;42.686;23.364;2023-04-27T09:01:20;94882.81;;;14.69;35.82
20612;BME280;10465;42.686;23.364;2023-04-27T09:03:46;94879.69;;;14.55;36.05
20612;BME280;10465;42.686;23.364;2023-04-27T09:06:12;94869.72;;;14.64;35.64
20612;BME280;10465;42.686;23.364;2023-04-27T09:11:11;94846.19;;;14.78;35.84
20612;BME280;10465;42.686;23.364;2023-04-27T09:13:38;94872.03;;;15.11;35.23
20612;BME280;10465;42.686;23.364;2023-04-27T09:16:04;94872.69;;;15.20;34.86
20612;BME280;10465;42.686;23.364;2023-04-27T09:18:30;94854.69;;;15.05;34.55
20612;BME280;10465;42.686;23.364;2023-04-27T09:20:58;94852.88;;;14.84;35.19
20612;BME280;10465;42.686;23.364;2023-04-27T09:25:58;94864.94;;;14.70;35.21
20612;BME280;10465;42.686;23.364;2023-04-27T09:28:25;94859.63;;;14.82;35.57
20612;BME280;10465;42.686;23.364;2023-04-27T09:30:57;94852.19;;;14.63;35.79
20612;BME280;10465;42.686;23.364;2023-04-27T09:33:32;94868.66;;;14.44;36.15
20612;BME280;10465;42.686;23.364;2023-04-27T09:36:00;94855.09;;;14.37;36.32
20612;BME280;10465;42.686;23.364;2023-04-27T09:38:26;94844.41;;;14.70;36.07
20612;BME280;10465;42.686;23.364;2023-04-27T09:40:52;94854.13;;;14.99;35.44
20612;BME280;10465;42.686;23.364;2023-04-27T09:43:19;94845.44;;;15.02;35.61
20612;BME280;10465;42.686;23.364;2023-04-27T09:45:44;94858.34;;;15.13;34.88
20612;BME280;10465;42.686;23.364;2023-04-27T09:48:11;94837.13;;;15.16;34.88
20612;BME280;10465;42.686;23.364;2023-04-27T09:50:38;94853.13;;;15.16;34.71
20612;BME280;10465;42.686;23.364;2023-04-27T09:53:06;94850.34;;;15.13;34.56
20612;BME280;10465;42.686;23.364;2023-04-27T09:56:33;94841.34;;;15.17;34.82
20612;BME280;10465;42.686;23.364;2023-04-27T10:01:42;94841.22;;;14.89;34.52
20612;BME280;10465;42.686;23.364;2023-04-27T10:07:09;94842.47;;;14.92;34.50
20612;BME280;10465;42.686;23.364;2023-04-27T10:09:41;94830.00;;;14.71;34.50
20612;BME280;10465;42.686;23.364;2023-04-27T10:12:26;94838.13;;;14.75;35.15
20612;BME280;10465;42.686;23.364;2023-04-27T10:14:54;94834.00;;;14.77;35.48
20612;BME280;10465;42.686;23.364;2023-04-27T10:17:33;94829.31;;;14.62;35.00
20612;BME280;10465;42.686;23.364;2023-04-27T10:20:01;94833.84;;;14.49;35.94
20612;BME280;10465;42.686;23.364;2023-04-27T10:22:45;94826.84;;;14.57;35.10
20612;BME280;10465;42.686;23.364;2023-04-27T10:27:54;94841.72;;;14.58;35.29
20612;BME280;10465;42.686;23.364;2023-04-27T10:30:22;94834.56;;;14.83;34.73
20612;BME280;10465;42.686;23.364;2023-04-27T10:32:55;94835.25;;;15.17;34.49
20612;BME280;10465;42.686;23.364;2023-04-27T10:35:44;94832.13;;;15.15;34.70
20612;BME280;10465;42.686;23.364;2023-04-27T10:40:43;94828.69;;;15.14;34.40
20612;BME280;10465;42.686;23.364;2023-04-27T10:43:14;94834.59;;;15.07;33.79
20612;BME280;10465;42.686;23.364;2023-04-27T10:45:41;94838.34;;;15.06;33.76
20612;BME280;10465;42.686;23.364;2023-04-27T10:48:07;94832.81;;;14.99;33.58
20612;BME280;10465;42.686;23.364;2023-04-27T10:50:33;94832.56;;;15.04;33.77
20612;BME280;10465;42.686;23.364;2023-04-27T10:53:03;94823.69;;;15.13;33.50
20612;BME280;10465;42.686;23.364;2023-04-27T10:55:30;94835.88;;;15.26;32.98
20612;BME280;10465;42.686;23.364;2023-04-27T10:57:56;94811.56;;;15.27;32.65
20612;BME280;10465;42.686;23.364;2023-04-27T11:00:40;94832.31;;;15.46;32.40
20612;BME280;10465;42.686;23.364;2023-04-27T11:03:11;94817.53;;;15.49;32.15
20612;BME280;10465;42.686;23.364;2023-04-27T11:05:36;94819.22;;;15.41;32.61
20612;BME280;10465;42.686;23.364;2023-04-27T11:08:10;94815.69;;;15.25;33.84
20612;BME280;10465;42.686;23.364;2023-04-27T11:10:46;94822.47;;;14.98;33.49
20612;BME280;10465;42.686;23.364;2023-04-27T11:13:18;94823.34;;;15.02;33.00
20612;BME280;10465;42.686;23.364;2023-04-27T11:15:49;94820.56;;;14.86;32.83
20612;BME280;10465;42.686;23.364;2023-04-27T11:18:16;94815.56;;;14.72;33.14
20612;BME280;10465;42.686;23.364;2023-04-27T11:20:43;94815.44;;;14.56;33.35
20612;BME280;10465;42.686;23.364;2023-04-27T11:23:09;94814.88;;;14.30;33.83
20612;BME280;10465;42.686;23.364;2023-04-27T11:25:36;94792.84;;;13.96;34.27
20612;BME280;10465;42.686;23.364;2023-04-27T11:28:02;94840.41;;;14.19;34.51
20612;BME280;10465;42.686;23.364;2023-04-27T11:30:28;94803.72;;;14.03;34.74
20612;BME280;10465;42.686;23.364;2023-04-27T11:32:54;94834.88;;;14.36;34.44
20612;BME280;10465;42.686;23.364;2023-04-27T11:35:31;94812.81;;;14.35;33.90
20612;BME280;10465;42.686;23.364;2023-04-27T11:37:56;94829.44;;;14.66;33.71
20612;BME280;10465;42.686;23.364;2023-04-27T11:40:23;94828.88;;;14.60;33.99
20612;BME280;10465;42.686;23.364;2023-04-27T11:42:56;94830.66;;;14.80;34.17
20612;BME280;10465;42.686;23.364;2023-04-27T11:45:24;94826.88;;;14.81;34.03
20612;BME280;10465;42.686;23.364;2023-04-27T11:47:51;94824.69;;;14.83;34.07
20612;BME280;10465;42.686;23.364;2023-04-27T11:50:17;94834.13;;;14.93;33.30
20612;BME280;10465;42.686;23.364;2023-04-27T11:52:47;94839.56;;;15.09;33.22
20612;BME280;10465;42.686;23.364;2023-04-27T11:55:13;94803.38;;;14.96;32.88
20612;BME280;10465;42.686;23.364;2023-04-27T11:57:40;94839.91;;;15.07;32.48
20612;BME280;10465;42.686;23.364;2023-04-27T12:00:06;94814.56;;;14.65;32.85
20612;BME280;10465;42.686;23.364;2023-04-27T12:02:36;94836.19;;;14.51;33.89
20612;BME280;10465;42.686;23.364;2023-04-27T12:05:02;94836.97;;;14.64;33.76
20612;BME280;10465;42.686;23.364;2023-04-27T12:07:28;94827.31;;;14.59;34.00
20612;BME280;10465;42.686;23.364;2023-04-27T12:09:54;94835.44;;;14.75;33.97
20612;BME280;10465;42.686;23.364;2023-04-27T12:12:20;94834.06;;;14.56;33.82
20612;BME280;10465;42.686;23.364;2023-04-27T12:14:49;94834.53;;;14.58;33.50
20612;BME280;10465;42.686;23.364;2023-04-27T12:17:15;94821.34;;;14.41;34.10
20612;BME280;10465;42.686;23.364;2023-04-27T12:19:40;94837.34;;;14.41;34.17
20612;BME280;10465;42.686;23.364;2023-04-27T12:22:06;94839.69;;;14.43;34.22
20612;BME280;10465;42.686;23.364;2023-04-27T12:24:32;94840.75;;;14.50;34.41
20612;BME280;10465;42.686;23.364;2023-04-27T12:26:58;94830.03;;;14.38;33.98
20612;BME280;10465;42.686;23.364;2023-04-27T12:29:24;94841.19;;;14.65;33.96
20612;BME280;10465;42.686;23.364;2023-04-27T12:31:50;94836.09;;;14.72;33.16
20612;BME280;10465;42.686;23.364;2023-04-27T12:34:16;94844.78;;;14.93;33.11
20612;BME280;10465;42.686;23.364;2023-04-27T12:36:42;94842.56;;;14.95;33.05
20612;BME280;10465;42.686;23.364;2023-04-27T12:39:16;94840.22;;;14.94;33.04
20612;BME280;10465;42.686;23.364;2023-04-27T12:41:46;94844.78;;;14.81;33.33
20612;BME280;10465;42.686;23.364;2023-04-27T12:44:12;94824.31;;;14.61;33.32
20612;BME280;10465;42.686;23.364;2023-04-27T12:46:41;94852.63;;;14.65;33.64
20612;BME280;10465;42.686;23.364;2023-04-27T12:49:08;94842.41;;;14.55;33.77
20612;BME280;10465;42.686;23.364;2023-04-27T12:51:34;94832.75;;;14.50;33.75
20612;BME280;10465;42.686;23.364;2023-04-27T12:54:04;94840.84;;;14.54;33.93
20612;BME280;10465;42.686;23.364;2023-04-27T12:56:29;94841.84;;;14.62;34.01
20612;BME280;10465;42.686;23.364;2023-04-27T12:58:55;94825.34;;;14.35;34.14
20612;BME280;10465;42.686;23.364;2023-04-27T13:01:21;94847.19;;;14.62;34.47
20612;BME280;10465;42.686;23.364;2023-04-27T13:03:52;94848.22;;;14.81;34.38
20612;BME280;10465;42.686;23.364;2023-04-27T13:06:18;94833.56;;;15.00;34.07